Time;durP1;ratioP1;P1;durP2;ratioP2;P2;SDS_P1;SDS_P2;PMS_P1;PMS_P2;Temp;Humidity;BMP_temperature;BMP_pressure;BME280_temperature;BME280_humidity;BME280_pressure;Samples;Min_cycle;Max_cycle;Signal;HPM_P1;HPM_P2
2022/08/21 00:00:02;;;;;;;;;;;22.50;52.70;;;;;;484409;246;1242;-75
2022/08/21 00:02:03;;;;;;;;;;;22.50;52.50;;;;;;484315;246;2120;-75
2022/08/21 00:04:05;;;;;;;;;;;22.40;52.40;;;;;;484641;246;1120;-75
2022/08/21 00:06:06;;;;;;;;;;;22.40;52.60;;;;;;484282;246;1244;-75
2022/08/21 00:08:08;;;;;;;;;;;22.40;52.70;;;;;;484373;246;1212;-75
2022/08/21 00:10:09;;;;;;;;;;;22.40;52.60;;;;;;484271;246;1181;-74
2022/08/21 00:12:10;;;;;;;;;;;22.40;52.50;;;;;;484316;245;1173;-75
2022/08/21 00:14:12;;;;;;;;;;;22.50;52.50;;;;;;484244;246;1130;-75
2022/08/21 00:16:13;;;;;;;;;;;22.50;52.40;;;;;;484314;246;1211;-75
2022/08/21 00:18:14;;;;;;;;;;;22.60;52.20;;;;;;484404;246;1168;-75
2022/08/21 00:20:16;;;;;;;;;;;22.60;52.30;;;;;;484374;246;1149;-75
2022/08/21 00:22:17;;;;;;;;;;;22.50;52.40;;;;;;484444;246;2187;-75
2022/08/21 00:24:18;;;;;;;;;;;22.40;52.50;;;;;;484400;246;1194;-75
2022/08/21 00:26:20;;;;;;;;;;;22.50;52.40;;;;;;484325;246;1211;-75
2022/08/21 00:28:21;;;;;;;;;;;22.40;52.50;;;;;;484392;246;1225;-75
2022/08/21 00:30:22;;;;;;;;;;;22.50;52.30;;;;;;484329;246;1188;-75
2022/08/21 00:32:24;;;;;;;;;;;22.50;52.30;;;;;;484321;246;1132;-75
2022/08/21 00:34:25;;;;;;;;;;;22.40;52.40;;;;;;484350;246;1115;-75
2022/08/21 00:36:26;;;;;;;;;;;22.30;52.70;;;;;;484419;246;1132;-75
2022/08/21 00:38:28;;;;;;;;;;;22.30;52.60;;;;;;484420;246;1241;-75
2022/08/21 00:40:29;;;;;;;;;;;22.40;52.50;;;;;;484254;246;1129;-75
2022/08/21 00:42:30;;;;;;;;;;;22.40;52.20;;;;;;484449;246;2188;-74
2022/08/21 00:44:32;;;;;;;;;;;22.40;52.10;;;;;;484318;246;1256;-74
2022/08/21 00:46:33;;;;;;;;;;;22.40;52.20;;;;;;484392;246;1237;-74
2022/08/21 00:48:34;;;;;;;;;;;22.40;51.90;;;;;;484356;246;1231;-74
2022/08/21 00:50:36;;;;;;;;;;;22.40;51.80;;;;;;484255;246;1309;-74
2022/08/21 00:52:37;;;;;;;;;;;22.40;51.90;;;;;;484371;243;1232;-74
2022/08/21 00:54:38;;;;;;;;;;;22.40;51.90;;;;;;484428;246;1280;-74
2022/08/21 00:56:40;;;;;;;;;;;22.40;51.90;;;;;;484636;246;1231;-74
2022/08/21 00:58:41;;;;;;;;;;;22.40;51.80;;;;;;484317;246;1208;-74
2022/08/21 01:00:42;;;;;;;;;;;22.50;51.90;;;;;;484307;246;2188;-74
2022/08/21 01:02:44;;;;;;;;;;;22.40;51.80;;;;;;484396;246;1231;-74
2022/08/21 01:04:45;;;;;;;;;;;22.50;51.80;;;;;;484392;246;1211;-74
2022/08/21 01:06:46;;;;;;;;;;;22.40;51.90;;;;;;484384;242;1143;-74
2022/08/21 01:08:48;;;;;;;;;;;22.20;52.20;;;;;;484351;246;1183;-74
2022/08/21 01:10:49;;;;;;;;;;;22.30;52.40;;;;;;484324;246;1250;-74
2022/08/21 01:12:51;;;;;;;;;;;22.30;52.20;;;;;;484349;246;1135;-74
2022/08/21 01:14:52;;;;;;;;;;;22.30;52.30;;;;;;484436;243;1231;-74
2022/08/21 01:16:53;;;;;;;;;;;22.30;52.40;;;;;;484252;246;1127;-74
2022/08/21 01:18:55;;;;;;;;;;;22.20;52.30;;;;;;484269;246;1259;-74
2022/08/21 01:20:56;;;;;;;;;;;22.30;52.40;;;;;;484401;246;2152;-74
2022/08/21 01:22:57;;;;;;;;;;;22.40;52.20;;;;;;484374;246;1220;-74
2022/08/21 01:24:59;;;;;;;;;;;22.40;51.90;;;;;;484214;246;1124;-74
2022/08/21 01:27:00;;;;;;;;;;;22.40;52.10;;;;;;484379;246;1142;-74
2022/08/21 01:29:01;;;;;;;;;;;22.40;52.10;;;;;;484327;246;1237;-74
2022/08/21 01:31:03;;;;;;;;;;;22.40;52.10;;;;;;484309;246;1178;-74
2022/08/21 01:33:04;;;;;;;;;;;22.40;52.10;;;;;;484516;246;1147;-74
2022/08/21 01:35:05;;;;;;;;;;;22.40;51.90;;;;;;484612;246;1190;-74
2022/08/21 01:37:07;;;;;;;;;;;22.50;51.90;;;;;;484313;246;1156;-74
2022/08/21 01:39:08;;;;;;;;;;;22.40;51.90;;;;;;484479;246;1169;-74
2022/08/21 01:41:09;;;;;;;;;;;22.40;52.10;;;;;;484316;246;2200;-74
2022/08/21 01:43:11;;;;;;;;;;;22.30;52.30;;;;;;484410;246;1176;-75
2022/08/21 01:45:12;;;;;;;;;;;22.40;52.20;;;;;;484387;246;1136;-75
2022/08/21 01:47:13;;;;;;;;;;;22.30;52.30;;;;;;484304;242;1194;-75
2022/08/21 01:49:15;;;;;;;;;;;22.40;52.20;;;;;;484495;246;1200;-75
2022/08/21 01:51:16;;;;;;;;;;;22.40;52.10;;;;;;484339;246;1297;-75
2022/08/21 01:53:17;;;;;;;;;;;22.50;52.00;;;;;;484397;246;1232;-75
2022/08/21 01:55:19;;;;;;;;;;;22.60;51.60;;;;;;484276;246;1134;-75
2022/08/21 01:57:20;;;;;;;;;;;22.60;51.60;;;;;;484283;246;1180;-75
2022/08/21 01:59:22;;;;;;;;;;;22.60;51.40;;;;;;484430;246;1194;-75
2022/08/21 02:01:24;;;;;;;;;;;22.50;51.70;;;;;;484219;246;2144;-75
2022/08/21 02:03:24;;;;;;;;;;;22.50;51.80;;;;;;484303;246;1344;-75
2022/08/21 02:05:26;;;;;;;;;;;22.40;51.80;;;;;;484322;246;1224;-74
2022/08/21 02:07:27;;;;;;;;;;;22.40;51.80;;;;;;484273;246;1187;-74
2022/08/21 02:09:28;;;;;;;;;;;22.40;52.00;;;;;;484308;246;1212;-75
2022/08/21 02:11:30;;;;;;;;;;;22.30;52.20;;;;;;484335;246;1188;-75
2022/08/21 02:13:31;;;;;;;;;;;22.20;52.40;;;;;;484332;246;1225;-75
2022/08/21 02:15:32;;;;;;;;;;;22.30;52.30;;;;;;484368;246;1175;-75
2022/08/21 02:17:34;;;;;;;;;;;22.40;52.10;;;;;;484399;246;1135;-75
2022/08/21 02:19:35;;;;;;;;;;;22.40;51.90;;;;;;484428;246;1197;-75
2022/08/21 02:21:36;;;;;;;;;;;22.40;51.90;;;;;;484306;246;2196;-75
2022/08/21 02:23:38;;;;;;;;;;;22.40;51.90;;;;;;484270;246;1165;-75
2022/08/21 02:25:39;;;;;;;;;;;22.40;51.90;;;;;;484315;246;1224;-75
2022/08/21 02:27:41;;;;;;;;;;;22.50;51.90;;;;;;484291;246;1223;-75
2022/08/21 02:29:42;;;;;;;;;;;22.50;51.80;;;;;;484278;246;1176;-75
2022/08/21 02:31:44;;;;;;;;;;;22.50;51.70;;;;;;484314;246;1139;-75
2022/08/21 02:33:45;;;;;;;;;;;22.40;51.80;;;;;;484353;246;1121;-75
2022/08/21 02:35:46;;;;;;;;;;;22.40;51.90;;;;;;484302;246;1139;-75
2022/08/21 02:37:48;;;;;;;;;;;22.40;52.10;;;;;;484349;246;1289;-75
2022/08/21 02:39:49;;;;;;;;;;;22.30;52.00;;;;;;484525;246;1169;-75
2022/08/21 02:41:50;;;;;;;;;;;22.30;52.10;;;;;;484340;245;2144;-75
2022/08/21 02:43:52;;;;;;;;;;;22.40;52.10;;;;;;484455;242;1313;-75
2022/08/21 02:45:53;;;;;;;;;;;22.40;51.90;;;;;;484334;246;1256;-75
2022/08/21 02:47:54;;;;;;;;;;;22.40;51.90;;;;;;484499;246;1122;-75
2022/08/21 02:49:56;;;;;;;;;;;22.40;51.60;;;;;;484553;246;1153;-75
2022/08/21 02:51:57;;;;;;;;;;;22.50;51.60;;;;;;484291;246;1268;-75
2022/08/21 02:53:58;;;;;;;;;;;22.50;51.50;;;;;;484360;246;1162;-75
2022/08/21 02:56:00;;;;;;;;;;;22.40;51.40;;;;;;484649;246;1218;-75
2022/08/21 02:58:01;;;;;;;;;;;22.50;51.90;;;;;;484304;246;1140;-75
2022/08/21 03:00:02;;;;;;;;;;;22.40;51.70;;;;;;484601;243;1186;-75
2022/08/21 03:02:04;;;;;;;;;;;22.40;51.70;;;;;;484584;246;2192;-75
2022/08/21 03:04:05;;;;;;;;;;;22.40;51.70;;;;;;484337;246;1200;-75
2022/08/21 03:06:07;;;;;;;;;;;22.40;51.70;;;;;;484324;246;1245;-74
2022/08/21 03:08:09;;;;;;;;;;;22.40;51.80;;;;;;484257;246;1349;-74
2022/08/21 03:10:09;;;;;;;;;;;22.40;51.90;;;;;;484108;246;1572;-75
2022/08/21 03:12:11;;;;;;;;;;;22.40;51.60;;;;;;484380;246;1160;-75
2022/08/21 03:14:12;;;;;;;;;;;22.30;51.90;;;;;;484461;246;1118;-75
2022/08/21 03:16:14;;;;;;;;;;;22.30;51.90;;;;;;484361;246;1163;-75
2022/08/21 03:18:15;;;;;;;;;;;22.30;51.90;;;;;;484334;246;1544;-74
2022/08/21 03:20:16;;;;;;;;;;;22.30;51.80;;;;;;484333;246;1252;-74
2022/08/21 03:22:18;;;;;;;;;;;22.20;51.90;;;;;;484394;246;2188;-74
2022/08/21 03:24:19;;;;;;;;;;;22.30;51.90;;;;;;484365;245;1220;-74
2022/08/21 03:26:20;;;;;;;;;;;22.40;51.80;;;;;;484288;246;1073;-74
2022/08/21 03:28:22;;;;;;;;;;;22.40;51.60;;;;;;484344;246;1169;-75
2022/08/21 03:30:23;;;;;;;;;;;22.40;51.60;;;;;;484341;242;1171;-75
2022/08/21 03:32:24;;;;;;;;;;;22.40;51.70;;;;;;484372;246;1242;-75
2022/08/21 03:34:26;;;;;;;;;;;22.50;51.60;;;;;;484382;246;1239;-75
2022/08/21 03:36:27;;;;;;;;;;;22.40;51.60;;;;;;484280;246;1185;-74
2022/08/21 03:38:28;;;;;;;;;;;22.40;51.60;;;;;;484245;246;1209;-74
2022/08/21 03:40:30;;;;;;;;;;;22.40;51.60;;;;;;484285;246;1173;-75
2022/08/21 03:42:31;;;;;;;;;;;22.40;51.60;;;;;;484243;246;2153;-75
2022/08/21 03:44:32;;;;;;;;;;;22.40;51.70;;;;;;484339;246;1183;-75
2022/08/21 03:46:34;;;;;;;;;;;22.40;51.40;;;;;;484201;246;1170;-75
2022/08/21 03:48:35;;;;;;;;;;;22.40;51.30;;;;;;484222;246;1294;-75
2022/08/21 03:50:36;;;;;;;;;;;22.40;51.30;;;;;;484278;246;1199;-75
2022/08/21 03:52:38;;;;;;;;;;;22.30;51.30;;;;;;484330;246;1167;-75
2022/08/21 03:54:41;;;;;;;;;;;22.20;51.60;;;;;;484246;246;1124;-75
2022/08/21 03:56:41;;;;;;;;;;;22.20;51.40;;;;;;484298;246;1424;-75
2022/08/21 03:58:42;;;;;;;;;;;22.20;51.40;;;;;;484252;246;1275;-75
2022/08/21 04:00:43;;;;;;;;;;;22.20;51.50;;;;;;484372;246;1163;-75
2022/08/21 04:02:45;;;;;;;;;;;22.20;51.50;;;;;;484283;246;2160;-75
2022/08/21 04:04:46;;;;;;;;;;;22.20;51.60;;;;;;484393;246;1292;-75
2022/08/21 04:06:47;;;;;;;;;;;22.10;51.50;;;;;;484288;246;1240;-75
2022/08/21 04:08:49;;;;;;;;;;;22.20;51.60;;;;;;484286;246;1131;-74
2022/08/21 04:10:50;;;;;;;;;;;22.20;51.40;;;;;;484351;245;1247;-74
2022/08/21 04:12:52;;;;;;;;;;;22.20;51.60;;;;;;484306;246;1296;-75
2022/08/21 04:14:53;;;;;;;;;;;22.20;51.40;;;;;;484366;246;1197;-75
2022/08/21 04:16:54;;;;;;;;;;;22.30;51.30;;;;;;484311;246;1166;-75
2022/08/21 04:18:55;;;;;;;;;;;22.20;51.20;;;;;;484450;246;1150;-75
2022/08/21 04:20:57;;;;;;;;;;;22.20;51.30;;;;;;484565;246;1272;-75
2022/08/21 04:22:58;;;;;;;;;;;22.10;51.40;;;;;;484496;246;2153;-75
2022/08/21 04:25:00;;;;;;;;;;;22.20;51.40;;;;;;484278;246;1219;-75
2022/08/21 04:27:01;;;;;;;;;;;22.20;51.50;;;;;;484309;246;1215;-75
2022/08/21 04:29:02;;;;;;;;;;;22.20;51.40;;;;;;484328;246;1218;-75
2022/08/21 04:31:04;;;;;;;;;;;22.30;51.30;;;;;;484302;246;1120;-75
2022/08/21 04:33:05;;;;;;;;;;;22.20;51.30;;;;;;484481;246;1183;-75
2022/08/21 04:35:06;;;;;;;;;;;22.30;51.40;;;;;;484284;246;1222;-75
2022/08/21 04:37:08;;;;;;;;;;;22.30;51.50;;;;;;484313;246;1171;-75
2022/08/21 04:39:09;;;;;;;;;;;22.20;51.30;;;;;;484266;246;1171;-75
2022/08/21 04:41:11;;;;;;;;;;;22.30;51.40;;;;;;484297;246;1353;-75
2022/08/21 04:43:12;;;;;;;;;;;22.30;51.20;;;;;;484257;246;2144;-75
2022/08/21 04:45:13;;;;;;;;;;;22.30;51.30;;;;;;484299;246;1238;-75
2022/08/21 04:47:15;;;;;;;;;;;22.30;51.40;;;;;;484256;246;1187;-75
2022/08/21 04:49:16;;;;;;;;;;;22.30;51.20;;;;;;484386;245;1159;-75
2022/08/21 04:51:17;;;;;;;;;;;22.20;51.30;;;;;;484363;246;1210;-75
2022/08/21 04:53:18;;;;;;;;;;;22.20;51.30;;;;;;484295;246;1196;-75
2022/08/21 04:55:20;;;;;;;;;;;22.30;51.40;;;;;;484545;242;1279;-74
2022/08/21 04:57:21;;;;;;;;;;;22.30;51.30;;;;;;484350;246;1256;-74
2022/08/21 04:59:22;;;;;;;;;;;22.30;51.20;;;;;;484331;246;1188;-74
2022/08/21 05:01:24;;;;;;;;;;;22.30;51.30;;;;;;484327;246;1142;-75
2022/08/21 05:03:25;;;;;;;;;;;22.20;51.40;;;;;;484470;246;2152;-75
2022/08/21 05:05:28;;;;;;;;;;;22.30;51.30;;;;;;484312;246;1040;-75
2022/08/21 05:07:28;;;;;;;;;;;22.40;51.20;;;;;;484291;245;1490;-75
2022/08/21 05:09:30;;;;;;;;;;;22.30;51.30;;;;;;484290;246;1127;-75
2022/08/21 05:11:31;;;;;;;;;;;22.30;51.30;;;;;;484360;246;1248;-75
2022/08/21 05:13:32;;;;;;;;;;;22.30;51.30;;;;;;484516;246;1107;-75
2022/08/21 05:15:34;;;;;;;;;;;22.30;51.20;;;;;;484373;246;1010;-75
2022/08/21 05:17:35;;;;;;;;;;;22.30;51.30;;;;;;484341;242;1176;-75
2022/08/21 05:19:36;;;;;;;;;;;22.30;51.30;;;;;;484294;246;1196;-75
2022/08/21 05:21:38;;;;;;;;;;;22.30;51.30;;;;;;484432;246;1231;-75
2022/08/21 05:23:39;;;;;;;;;;;22.20;51.40;;;;;;484443;245;2156;-75
2022/08/21 05:25:41;;;;;;;;;;;22.30;51.40;;;;;;484351;246;1146;-75
2022/08/21 05:27:42;;;;;;;;;;;22.20;51.50;;;;;;484435;246;1180;-75
2022/08/21 05:29:43;;;;;;;;;;;22.20;51.50;;;;;;484319;246;1246;-74
2022/08/21 05:31:44;;;;;;;;;;;22.30;51.50;;;;;;484577;246;1230;-74
2022/08/21 05:33:46;;;;;;;;;;;22.30;51.50;;;;;;484475;246;1139;-74
2022/08/21 05:35:47;;;;;;;;;;;22.30;51.30;;;;;;484327;246;1203;-74
2022/08/21 05:37:48;;;;;;;;;;;22.30;51.30;;;;;;484426;246;1122;-74
2022/08/21 05:39:50;;;;;;;;;;;22.30;51.30;;;;;;484293;246;1145;-75
2022/08/21 05:41:51;;;;;;;;;;;22.20;51.40;;;;;;484675;245;1130;-75
2022/08/21 05:43:52;;;;;;;;;;;22.20;51.50;;;;;;484289;246;2165;-75
2022/08/21 05:45:54;;;;;;;;;;;22.20;51.40;;;;;;484372;246;1272;-75
2022/08/21 05:47:55;;;;;;;;;;;22.30;51.50;;;;;;484683;246;1088;-75
2022/08/21 05:49:56;;;;;;;;;;;22.30;51.30;;;;;;484297;246;1205;-75
2022/08/21 05:51:58;;;;;;;;;;;22.40;51.30;;;;;;484342;246;1138;-75
2022/08/21 05:53:59;;;;;;;;;;;22.40;51.20;;;;;;484280;246;1229;-75
2022/08/21 05:56:03;;;;;;;;;;;22.40;51.30;;;;;;484373;246;1091;-75
2022/08/21 05:58:02;;;;;;;;;;;22.30;51.30;;;;;;484156;246;1413;-75
2022/08/21 06:00:03;;;;;;;;;;;22.30;51.20;;;;;;484501;246;1250;-75
2022/08/21 06:02:04;;;;;;;;;;;22.40;51.30;;;;;;484368;246;1195;-75
2022/08/21 06:04:06;;;;;;;;;;;22.30;51.20;;;;;;484420;246;2160;-74
2022/08/21 06:06:07;;;;;;;;;;;22.40;51.30;;;;;;484275;246;1460;-74
2022/08/21 06:08:08;;;;;;;;;;;22.30;51.30;;;;;;484400;246;1237;-74
2022/08/21 06:10:10;;;;;;;;;;;22.30;51.40;;;;;;484297;246;1185;-74
2022/08/21 06:12:11;;;;;;;;;;;22.40;51.30;;;;;;484351;246;1155;-74
2022/08/21 06:14:13;;;;;;;;;;;22.40;51.30;;;;;;484422;245;1131;-75
2022/08/21 06:16:14;;;;;;;;;;;22.40;51.30;;;;;;484355;246;1204;-75
2022/08/21 06:18:15;;;;;;;;;;;22.30;51.30;;;;;;484475;246;1111;-75
2022/08/21 06:20:16;;;;;;;;;;;22.30;51.40;;;;;;484430;246;1215;-74
2022/08/21 06:22:18;;;;;;;;;;;22.30;51.50;;;;;;484403;246;1189;-74
2022/08/21 06:24:19;;;;;;;;;;;22.40;51.20;;;;;;484328;246;2211;-74
2022/08/21 06:26:21;;;;;;;;;;;22.40;51.30;;;;;;484449;242;1169;-74
2022/08/21 06:28:22;;;;;;;;;;;22.40;51.20;;;;;;484364;246;1339;-74
2022/08/21 06:30:23;;;;;;;;;;;22.40;51.20;;;;;;484310;246;1218;-74
2022/08/21 06:32:24;;;;;;;;;;;22.30;51.20;;;;;;484347;246;1324;-74
2022/08/21 06:34:26;;;;;;;;;;;22.30;51.20;;;;;;484293;246;1100;-74
2022/08/21 06:36:27;;;;;;;;;;;22.30;51.20;;;;;;484309;246;1176;-74
2022/08/21 06:38:29;;;;;;;;;;;22.20;51.20;;;;;;484493;246;1121;-74
2022/08/21 06:40:30;;;;;;;;;;;22.20;51.20;;;;;;484489;246;1175;-74
2022/08/21 06:42:31;;;;;;;;;;;22.20;51.30;;;;;;484287;246;1201;-74
2022/08/21 06:44:32;;;;;;;;;;;22.20;51.40;;;;;;484446;246;2184;-75
2022/08/21 06:46:34;;;;;;;;;;;22.20;51.40;;;;;;484322;246;1285;-75
2022/08/21 06:48:35;;;;;;;;;;;22.30;51.40;;;;;;484291;246;1128;-74
2022/08/21 06:50:37;;;;;;;;;;;22.20;51.30;;;;;;484281;246;1139;-74
2022/08/21 06:52:38;;;;;;;;;;;22.30;51.50;;;;;;484339;246;1143;-74
2022/08/21 06:54:39;;;;;;;;;;;22.30;51.40;;;;;;484247;246;1172;-74
2022/08/21 06:56:41;;;;;;;;;;;22.30;51.30;;;;;;484283;246;1213;-74
2022/08/21 06:58:42;;;;;;;;;;;22.30;51.50;;;;;;484268;246;1189;-74
2022/08/21 07:00:43;;;;;;;;;;;22.20;51.40;;;;;;484372;246;1207;-74
2022/08/21 07:02:45;;;;;;;;;;;22.30;51.60;;;;;;484517;245;1128;-75
2022/08/21 07:04:46;;;;;;;;;;;22.20;51.50;;;;;;484311;246;2199;-75
2022/08/21 07:06:47;;;;;;;;;;;22.30;51.60;;;;;;484361;246;1204;-75
2022/08/21 07:08:49;;;;;;;;;;;22.30;51.50;;;;;;484248;246;1214;-74
2022/08/21 07:10:50;;;;;;;;;;;22.30;51.40;;;;;;484433;246;1346;-74
2022/08/21 07:12:52;;;;;;;;;;;22.30;51.40;;;;;;484275;246;1189;-74
2022/08/21 07:14:53;;;;;;;;;;;22.40;51.40;;;;;;484375;246;1178;-75
2022/08/21 07:16:54;;;;;;;;;;;22.40;51.40;;;;;;484343;246;1348;-75
2022/08/21 07:18:55;;;;;;;;;;;22.40;51.40;;;;;;484300;246;1211;-75
2022/08/21 07:20:57;;;;;;;;;;;22.40;51.50;;;;;;484270;246;1235;-75
2022/08/21 07:22:58;;;;;;;;;;;22.30;51.60;;;;;;484272;246;1207;-75
2022/08/21 07:24:59;;;;;;;;;;;22.30;51.70;;;;;;484195;246;2204;-74
2022/08/21 07:27:01;;;;;;;;;;;22.40;51.60;;;;;;484322;245;1157;-74
2022/08/21 07:29:02;;;;;;;;;;;22.40;51.70;;;;;;484320;246;1180;-74
2022/08/21 07:31:03;;;;;;;;;;;22.30;51.70;;;;;;484327;246;1263;-74
2022/08/21 07:33:05;;;;;;;;;;;22.30;51.90;;;;;;484321;246;1190;-74
2022/08/21 07:35:07;;;;;;;;;;;22.30;51.80;;;;;;484408;246;1304;-74
2022/08/21 07:37:07;;;;;;;;;;;22.30;51.90;;;;;;484324;246;1338;-75
2022/08/21 07:39:09;;;;;;;;;;;22.30;51.90;;;;;;484439;246;1237;-74
2022/08/21 07:41:11;;;;;;;;;;;22.30;51.80;;;;;;484321;246;1210;-74
2022/08/21 07:43:12;;;;;;;;;;;22.30;51.80;;;;;;484525;246;2160;-74
2022/08/21 07:45:13;;;;;;;;;;;22.30;51.90;;;;;;484283;246;1193;-74
2022/08/21 07:47:15;;;;;;;;;;;22.40;51.90;;;;;;484301;246;1275;-74
2022/08/21 07:49:16;;;;;;;;;;;22.50;51.80;;;;;;484290;246;1119;-75
2022/08/21 07:51:18;;;;;;;;;;;22.40;51.70;;;;;;484321;246;1234;-75
2022/08/21 07:53:19;;;;;;;;;;;22.40;51.80;;;;;;484316;246;1233;-74
2022/08/21 07:55:21;;;;;;;;;;;22.50;51.80;;;;;;484467;246;1143;-74
2022/08/21 07:57:21;;;;;;;;;;;22.50;51.70;;;;;;484193;246;1440;-75
2022/08/21 07:59:23;;;;;;;;;;;22.50;51.70;;;;;;484336;246;1198;-75
2022/08/21 08:01:24;;;;;;;;;;;22.60;51.60;;;;;;484268;246;1226;-75
2022/08/21 08:03:25;;;;;;;;;;;22.60;51.60;;;;;;484282;246;2149;-75
2022/08/21 08:05:27;;;;;;;;;;;22.60;51.60;;;;;;484359;246;1196;-75
2022/08/21 08:07:28;;;;;;;;;;;22.60;51.60;;;;;;484171;246;1171;-75
2022/08/21 08:09:30;;;;;;;;;;;22.70;51.50;;;;;;484230;246;1154;-75
2022/08/21 08:11:31;;;;;;;;;;;22.70;51.40;;;;;;484261;246;1226;-75
2022/08/21 08:13:33;;;;;;;;;;;22.70;51.40;;;;;;484287;246;1133;-75
2022/08/21 08:15:34;;;;;;;;;;;22.80;51.30;;;;;;484270;246;1296;-75
2022/08/21 08:17:37;;;;;;;;;;;22.80;51.20;;;;;;484217;246;1136;-75
2022/08/21 08:19:36;;;;;;;;;;;22.80;51.20;;;;;;484079;246;1439;-75
2022/08/21 08:21:38;;;;;;;;;;;22.80;51.20;;;;;;484406;246;1215;-75
2022/08/21 08:23:39;;;;;;;;;;;22.80;51.20;;;;;;484254;246;2164;-75
2022/08/21 08:25:40;;;;;;;;;;;22.80;51.10;;;;;;484286;246;1230;-75
2022/08/21 08:27:42;;;;;;;;;;;22.80;51.20;;;;;;484370;246;1218;-75
2022/08/21 08:29:43;;;;;;;;;;;22.80;51.20;;;;;;484314;246;1168;-75
2022/08/21 08:31:45;;;;;;;;;;;22.70;51.10;;;;;;484531;246;1184;-74
2022/08/21 08:33:46;;;;;;;;;;;22.70;51.20;;;;;;484549;246;1148;-74
2022/08/21 08:35:47;;;;;;;;;;;22.70;51.10;;;;;;484262;246;1164;-74
2022/08/21 08:37:49;;;;;;;;;;;22.70;51.30;;;;;;484326;246;1167;-74
2022/08/21 08:39:50;;;;;;;;;;;22.60;51.30;;;;;;484409;246;1059;-74
2022/08/21 08:41:52;;;;;;;;;;;22.70;51.40;;;;;;484377;242;1206;-74
2022/08/21 08:43:53;;;;;;;;;;;22.70;51.40;;;;;;484319;245;2181;-74
2022/08/21 08:45:54;;;;;;;;;;;22.70;51.30;;;;;;484369;246;1176;-75
2022/08/21 08:47:57;;;;;;;;;;;22.70;51.40;;;;;;484279;246;1195;-75
2022/08/21 08:49:57;;;;;;;;;;;22.70;51.40;;;;;;484318;246;1420;-75
2022/08/21 08:51:58;;;;;;;;;;;22.70;51.40;;;;;;484314;246;1097;-75
2022/08/21 08:53:59;;;;;;;;;;;22.70;51.50;;;;;;484434;246;1160;-74
2022/08/21 08:56:01;;;;;;;;;;;22.70;51.50;;;;;;484356;246;1272;-74
2022/08/21 08:58:02;;;;;;;;;;;22.70;51.50;;;;;;484313;246;1467;-74
2022/08/21 09:00:04;;;;;;;;;;;22.70;51.60;;;;;;484329;246;1224;-74
2022/08/21 09:02:05;;;;;;;;;;;22.70;51.60;;;;;;484290;246;1247;-74
2022/08/21 09:04:07;;;;;;;;;;;22.70;51.60;;;;;;484255;246;2156;-74
2022/08/21 09:06:08;;;;;;;;;;;22.70;51.70;;;;;;484406;246;1224;-74
2022/08/21 09:08:09;;;;;;;;;;;22.70;51.80;;;;;;484262;246;1225;-74
2022/08/21 09:10:11;;;;;;;;;;;22.60;51.70;;;;;;484246;246;1137;-74
2022/08/21 09:12:12;;;;;;;;;;;22.70;51.80;;;;;;484368;246;1343;-74
2022/08/21 09:14:13;;;;;;;;;;;22.70;52.00;;;;;;484279;246;1193;-74
2022/08/21 09:16:15;;;;;;;;;;;22.60;51.80;;;;;;484291;246;1211;-74
2022/08/21 09:18:16;;;;;;;;;;;22.60;52.00;;;;;;484341;246;1594;-74
2022/08/21 09:20:18;;;;;;;;;;;22.60;52.00;;;;;;484265;246;1212;-74
2022/08/21 09:22:19;;;;;;;;;;;22.60;52.00;;;;;;484336;246;1175;-74
2022/08/21 09:24:20;;;;;;;;;;;22.60;52.00;;;;;;484269;246;2149;-75
2022/08/21 09:26:22;;;;;;;;;;;22.70;52.10;;;;;;484302;246;1243;-74
2022/08/21 09:28:23;;;;;;;;;;;22.60;52.00;;;;;;484427;246;1199;-74
2022/08/21 09:30:24;;;;;;;;;;;22.70;52.00;;;;;;484265;242;1282;-74
2022/08/21 09:32:26;;;;;;;;;;;22.70;52.00;;;;;;484409;242;1185;-74
2022/08/21 09:34:27;;;;;;;;;;;22.70;52.10;;;;;;484305;246;1160;-74
2022/08/21 09:36:28;;;;;;;;;;;22.70;52.10;;;;;;484521;246;1187;-75
2022/08/21 09:38:31;;;;;;;;;;;22.70;52.10;;;;;;484319;246;1227;-74
2022/08/21 09:40:31;;;;;;;;;;;22.70;52.10;;;;;;484250;242;1593;-74
2022/08/21 09:42:32;;;;;;;;;;;22.80;52.00;;;;;;484286;246;1169;-74
2022/08/21 09:44:35;;;;;;;;;;;22.80;52.10;;;;;;484336;246;2141;-74
2022/08/21 09:46:36;;;;;;;;;;;22.70;52.00;;;;;;484189;246;1389;-74
2022/08/21 09:48:37;;;;;;;;;;;22.80;52.10;;;;;;484323;246;1229;-74
2022/08/21 09:50:39;;;;;;;;;;;22.80;52.00;;;;;;484355;246;1217;-74
2022/08/21 09:52:40;;;;;;;;;;;22.80;51.90;;;;;;484315;246;1274;-74
2022/08/21 09:54:41;;;;;;;;;;;22.90;51.90;;;;;;484280;246;1198;-74
2022/08/21 09:59:02;;;;;;;;;;;22.90;51.70;;;;;;484389;246;1231;-75
2022/08/21 10:01:03;;;;;;;;;;;22.90;51.70;;;;;;484375;246;1225;-75
2022/08/21 10:03:05;;;;;;;;;;;22.90;51.70;;;;;;484438;246;1255;-75
2022/08/21 10:05:06;;;;;;;;;;;22.90;51.80;;;;;;484307;246;2187;-75
2022/08/21 10:07:07;;;;;;;;;;;22.90;51.80;;;;;;484290;246;1228;-75
2022/08/21 10:09:09;;;;;;;;;;;22.90;51.90;;;;;;484263;242;1331;-75
2022/08/21 10:11:10;;;;;;;;;;;22.90;51.70;;;;;;484319;246;1203;-75
2022/08/21 10:13:11;;;;;;;;;;;22.90;51.80;;;;;;484252;246;1188;-75
2022/08/21 10:15:13;;;;;;;;;;;22.90;51.80;;;;;;484306;246;1218;-75
2022/08/21 10:17:14;;;;;;;;;;;22.90;51.80;;;;;;484287;246;1206;-75
2022/08/21 10:19:15;;;;;;;;;;;22.90;51.80;;;;;;484283;246;1363;-75
2022/08/21 10:21:17;;;;;;;;;;;22.90;51.80;;;;;;484265;245;1301;-75
2022/08/21 10:23:18;;;;;;;;;;;22.80;51.90;;;;;;484310;246;1105;-75
2022/08/21 10:25:20;;;;;;;;;;;22.80;52.00;;;;;;484512;246;2184;-75
2022/08/21 10:27:21;;;;;;;;;;;22.70;52.10;;;;;;484389;246;1322;-75
2022/08/21 10:29:24;;;;;;;;;;;22.70;52.20;;;;;;484297;246;1252;-75
2022/08/21 10:31:24;;;;;;;;;;;22.80;52.10;;;;;;484361;245;1436;-75
2022/08/21 10:33:26;;;;;;;;;;;22.80;52.10;;;;;;484587;246;1198;-75
2022/08/21 10:35:30;;;;;;;;;;;22.90;52.00;;;;;;484351;246;1095;-75
2022/08/21 10:37:29;;;;;;;;;;;22.90;52.00;;;;;;484164;246;1459;-75
2022/08/21 10:39:30;;;;;;;;;;;22.90;51.90;;;;;;484313;246;1175;-75
2022/08/21 10:41:31;;;;;;;;;;;22.90;51.80;;;;;;484519;246;1131;-74
2022/08/21 10:43:33;;;;;;;;;;;23.00;51.90;;;;;;484411;246;1143;-74
2022/08/21 10:45:34;;;;;;;;;;;23.00;51.90;;;;;;484241;246;2156;-75
2022/08/21 10:47:35;;;;;;;;;;;23.00;51.80;;;;;;484407;246;1214;-75
2022/08/21 10:49:37;;;;;;;;;;;23.00;51.80;;;;;;484469;246;1160;-75
2022/08/21 10:51:38;;;;;;;;;;;23.00;51.80;;;;;;484387;246;1166;-75
2022/08/21 10:53:39;;;;;;;;;;;23.00;51.80;;;;;;484215;246;1149;-74
2022/08/21 10:55:41;;;;;;;;;;;23.00;51.80;;;;;;484238;246;1242;-74
2022/08/21 10:57:42;;;;;;;;;;;23.00;51.80;;;;;;484327;246;1143;-75
2022/08/21 10:59:43;;;;;;;;;;;23.00;51.90;;;;;;484733;246;1227;-75
2022/08/21 11:01:45;;;;;;;;;;;23.10;51.70;;;;;;484299;246;1346;-75
2022/08/21 11:03:46;;;;;;;;;;;23.10;51.60;;;;;;484658;246;1183;-75
2022/08/21 11:05:49;;;;;;;;;;;23.10;51.60;;;;;;484772;246;2164;-75
2022/08/21 11:07:49;;;;;;;;;;;23.10;51.60;;;;;;484411;246;1420;-75
2022/08/21 11:09:51;;;;;;;;;;;23.10;51.70;;;;;;484375;246;1161;-74
2022/08/21 11:11:52;;;;;;;;;;;23.10;51.70;;;;;;484539;246;1242;-74
2022/08/21 11:13:53;;;;;;;;;;;23.00;51.60;;;;;;484311;246;1247;-74
2022/08/21 11:15:55;;;;;;;;;;;23.10;51.60;;;;;;484730;246;1118;-75
2022/08/21 11:17:56;;;;;;;;;;;23.10;51.60;;;;;;484417;246;1251;-75
2022/08/21 11:19:57;;;;;;;;;;;23.10;51.50;;;;;;484405;246;1118;-75
2022/08/21 11:22:00;;;;;;;;;;;23.20;51.50;;;;;;484480;246;1146;-75
2022/08/21 11:24:03;;;;;;;;;;;23.20;51.40;;;;;;484292;246;1423;-75
2022/08/21 11:26:01;;;;;;;;;;;23.10;51.50;;;;;;484127;246;2149;-75
2022/08/21 11:28:03;;;;;;;;;;;23.10;51.50;;;;;;484330;246;1024;-75
2022/08/21 11:30:04;;;;;;;;;;;23.10;51.50;;;;;;484330;246;1162;-75
2022/08/21 11:32:05;;;;;;;;;;;23.10;51.30;;;;;;484717;246;1279;-75
2022/08/21 11:34:07;;;;;;;;;;;23.20;51.30;;;;;;484386;246;1059;-75
2022/08/21 11:36:08;;;;;;;;;;;23.10;51.40;;;;;;484456;246;1001;-75
2022/08/21 11:38:09;;;;;;;;;;;23.10;51.40;;;;;;484406;246;1049;-74
2022/08/21 11:40:11;;;;;;;;;;;23.10;51.40;;;;;;484345;246;1146;-74
2022/08/21 11:42:12;;;;;;;;;;;23.20;51.30;;;;;;484299;246;1132;-74
2022/08/21 11:44:13;;;;;;;;;;;23.20;51.30;;;;;;484357;242;1161;-74
2022/08/21 11:46:15;;;;;;;;;;;23.10;51.30;;;;;;484292;246;2152;-74
2022/08/21 11:48:16;;;;;;;;;;;23.10;51.40;;;;;;484310;246;1104;-74
2022/08/21 11:50:17;;;;;;;;;;;23.10;51.30;;;;;;484388;246;1105;-74
2022/08/21 11:52:19;;;;;;;;;;;23.10;51.40;;;;;;484278;246;1123;-74
2022/08/21 11:54:20;;;;;;;;;;;23.10;51.30;;;;;;484441;242;1131;-74
2022/08/21 11:56:21;;;;;;;;;;;23.10;51.20;;;;;;484303;246;1126;-74
2022/08/21 11:58:23;;;;;;;;;;;23.00;51.20;;;;;;484274;246;1234;-74